Huvudsida
METAR-TAF:

METAR-TAF

Flygplatser :

Oslo flygplats. Gardermoen

Oslo, Norge

latitud: 60-12N, longitud: 011-05E, höjd: 208 m

Aktuellt väderrapport

Denna rapport gjordes för 20 minuter sedan, klockan 12:50 UTC
Stilla vind
Temperatur -6°C
Fuktighet 93%
Tryck 1032 hPa
Sikt 10 km eller mer
Få moln på en höjd av 2300 ft

METAR: ENGM 121250Z 00000KT 9999 FEW023 M06/M07 Q1032 NOSIG

Tid: 14:10 (13:10 UTC)

Väderprognos

Prognos gäller från 12 kl. 12 UTC till 13 kl. 12 UTC
Vind 5 kt från nord
Sikt 10 km eller mer
Få moln på en höjd av 2000 ft
Temporärt
från 12 kl. 18 UTC till 13 kl. 06 UTC
Brutna moln på en höjd av 800 ft

TAF: ENGM 1212/1312 36005KT 9999 FEW020 TEMPO 1218/1306 BKN008

Aktuella väderrapporter och prognoser från 4000 flygplatser (METAR- och TAF-rapporter).

De tillgängliga stationerna syns som gula och röda prickar på kartan.

För musen över prickarna för att se namnen på stationerna.

Klicka sedan för att få väderrapporter och prognoser.

För att ändra kartan: Klicka på de gröna knapparna med ett svart kors på för att zooma in; den gröna knappen med ett streck på för att zooma ut; eller på de gröna pilarna för angränsande kartor.


METAR-TAF: